CNO weather

Chino Airport
Chino, California, United States

Public forecast

Using degrees Fahrenheit for public forecast. Weather courtesy of forecast.io.

Current aviation weather report (METAR) for Chino Airport

Retrieved 2019/12/10 22:53 UTC (58 minutes ago):

KCNO 102253Z 00000KT 10SM BKN200 19/06 A3018 RMK AO2 SLP219 T01940056

Closest aviation forecast (TAF) to Chino Airport

Closest forecast is Ontario International Airport, 5.2 nm (9.6 km) NNE. Retrieved 2019/12/10 18:51 UTC (5 hours ago):

TAF KONT 101720Z 1018/1124 VRB04KT P6SM BKN250